Time;durP1;ratioP1;P1;durP2;ratioP2;P2;SDS_P1;SDS_P2;PMS_P1;PMS_P2;Temp;Humidity;BMP_temperature;BMP_pressure;BME280_temperature;BME280_humidity;BME280_pressure;Samples;Min_cycle;Max_cycle;Signal;HPM_P1;HPM_P2
2023/10/02 00:01:06;;;;;;;27.63;10.63;;;15.50;99.90;;;;;;4947811;28;20070;-70
2023/10/02 00:03:40;;;;;;;22.83;10.75;;;15.60;99.90;;;;;;4976803;28;20015;-66
2023/10/02 00:06:10;;;;;;;25.52;11.40;;;15.50;99.90;;;;;;4950048;28;20086;-66
2023/10/02 00:08:42;;;;;;;30.42;11.48;;;15.50;99.90;;;;;;4948764;28;20495;-64
2023/10/02 00:11:37;;;;;;;26.05;11.38;;;15.50;99.90;;;;;;4948811;28;20027;-70
2023/10/02 00:14:19;;;;;;;24.48;10.55;;;15.60;99.90;;;;;;4946002;28;20031;-69
2023/10/02 00:17:22;;;;;;;20.45;9.82;;;15.60;99.90;;;;;;4944206;28;20046;-68
2023/10/02 00:19:39;;;;;;;25.30;11.85;;;15.50;99.90;;;;;;4946125;28;20393;-66
2023/10/02 00:22:34;;;;;;;26.63;11.13;;;15.50;99.90;;;;;;4946914;28;20023;-69
2023/10/02 00:24:57;;;;;;;24.33;11.35;;;15.40;99.90;;;;;;4951156;28;20079;-68
2023/10/02 00:27:23;;;;;;;28.20;11.80;;;15.40;99.90;;;;;;4948840;28;20027;-70
2023/10/02 00:29:52;;;;;;;23.35;11.40;;;15.50;99.90;;;;;;4976881;28;20042;-69
2023/10/02 00:32:20;;;;;;;22.08;11.07;;;15.40;99.90;;;;;;4954355;28;20130;-67
2023/10/02 00:34:47;;;;;;;32.92;11.75;;;15.40;99.90;;;;;;4950811;28;20026;-63
2023/10/02 00:37:12;;;;;;;;;;;15.40;99.90;;;;;;4952753;28;20039;-63
2023/10/02 00:39:47;;;;;;;25.52;10.88;;;15.50;99.90;;;;;;4951430;28;20326;-64
2023/10/02 00:42:24;;;;;;;26.90;11.40;;;15.50;99.90;;;;;;4947131;28;20031;-66
2023/10/02 00:44:52;;;;;;;25.13;11.23;;;15.50;99.90;;;;;;4950757;28;20511;-63
2023/10/02 00:47:41;;;;;;;25.17;10.68;;;15.50;99.90;;;;;;4950517;28;20410;-64
2023/10/02 00:50:25;;;;;;;23.10;11.48;;;15.30;99.90;;;;;;4951473;28;20428;-66
2023/10/02 00:53:04;;;;;;;27.92;11.55;;;15.40;99.90;;;;;;4950547;28;20515;-63
2023/10/02 00:55:34;;;;;;;22.38;10.15;;;15.50;99.90;;;;;;4946239;28;20130;-64
2023/10/02 00:58:02;;;;;;;23.48;10.32;;;15.40;99.90;;;;;;4951574;28;20043;-63
2023/10/02 01:00:31;;;;;;;27.42;11.02;;;15.50;99.90;;;;;;4949659;28;20027;-68
2023/10/02 01:03:01;;;;;;;22.20;11.18;;;15.40;99.90;;;;;;4944806;28;20098;-69
2023/10/02 01:05:41;;;;;;;23.08;10.68;;;15.40;99.90;;;;;;4943459;28;20377;-68
2023/10/02 01:08:23;;;;;;;26.63;11.85;;;15.40;99.90;;;;;;4951977;28;20031;-68
2023/10/02 01:10:56;;;;;;;26.35;10.93;;;15.40;99.90;;;;;;4945410;28;20027;-65
2023/10/02 01:13:35;;;;;;;24.25;10.68;;;15.40;99.90;;;;;;4950856;28;20446;-68
2023/10/02 01:16:08;;;;;;;24.73;11.40;;;15.30;99.90;;;;;;4946618;28;20498;-69
2023/10/02 01:18:38;;;;;;;21.35;10.15;;;15.20;99.90;;;;;;4940650;28;20039;-67
2023/10/02 01:21:12;;;;;;;25.00;10.70;;;15.30;99.90;;;;;;4949117;28;20117;-69
2023/10/02 01:26:37;;;;;;;22.55;10.50;;;15.20;99.90;;;;;;4948678;28;20078;-69
2023/10/02 01:29:06;;;;;;;23.15;11.52;;;15.20;99.90;;;;;;4950103;28;20086;-67
2023/10/02 01:31:35;;;;;;;22.80;10.60;;;15.20;99.90;;;;;;4950419;28;20069;-67
2023/10/02 01:34:04;;;;;;;27.95;11.90;;;15.20;99.90;;;;;;4947508;28;20031;-66
2023/10/02 01:36:32;;;;;;;21.17;9.85;;;15.20;99.90;;;;;;4940222;28;20135;-68
2023/10/02 01:38:59;;;;;;;22.73;11.18;;;15.20;99.90;;;;;;4950552;28;20035;-69
2023/10/02 01:41:28;;;;;;;22.08;10.90;;;15.10;99.90;;;;;;4946852;28;20031;-67
2023/10/02 01:43:57;;;;;;;20.70;11.25;;;15.10;99.90;;;;;;4946261;28;20038;-70
2023/10/02 01:46:25;;;;;;;28.00;10.80;;;15.10;99.90;;;;;;4950397;28;20027;-66
2023/10/02 01:48:51;;;;;;;23.90;10.40;;;15.10;99.90;;;;;;4948468;28;20031;-65
2023/10/02 01:51:25;;;;;;;20.80;9.53;;;15.00;99.90;;;;;;4951312;28;20051;-63
2023/10/02 01:53:56;;;;;;;23.98;12.10;;;15.00;99.90;;;;;;4947651;28;20038;-63
2023/10/02 01:56:29;;;;;;;22.48;10.65;;;15.00;99.90;;;;;;4951084;28;20206;-64
2023/10/02 01:59:14;;;;;;;25.98;10.52;;;15.00;99.90;;;;;;4947620;28;20074;-65
2023/10/02 02:01:51;;;;;;;25.17;11.15;;;15.00;99.90;;;;;;4950231;28;20411;-69
2023/10/02 02:04:18;;;;;;;24.65;10.18;;;14.90;99.90;;;;;;4952816;28;20027;-68
2023/10/02 02:06:55;;;;;;;21.80;10.10;;;14.80;99.90;;;;;;4950012;28;20023;-69
2023/10/02 02:09:24;;;;;;;23.80;10.05;;;14.80;99.90;;;;;;4950412;28;20035;-70
2023/10/02 02:12:14;;;;;;;31.40;11.05;;;14.80;99.90;;;;;;4950156;28;20527;-70
2023/10/02 02:14:52;;;;;;;24.95;12.38;;;14.70;99.90;;;;;;4942868;28;20027;-65
2023/10/02 02:17:23;;;;;;;25.33;10.63;;;14.90;99.90;;;;;;4948021;28;20043;-65
2023/10/02 02:19:48;;;;;;;23.15;10.70;;;14.90;99.90;;;;;;4949337;28;20043;-66
2023/10/02 02:22:23;;;;;;;26.80;11.03;;;15.00;99.90;;;;;;4948893;28;20031;-64
2023/10/02 02:24:51;;;;;;;21.13;10.25;;;14.90;99.90;;;;;;4943828;28;20291;-65
2023/10/02 02:27:19;;;;;;;21.10;10.93;;;15.10;99.90;;;;;;4951760;28;20011;-63
2023/10/02 02:29:46;;;;;;;24.15;10.27;;;15.10;99.90;;;;;;4949075;28;20042;-70
2023/10/02 02:32:12;;;;;;;32.92;11.57;;;15.00;99.90;;;;;;4944241;28;20027;-66
2023/10/02 02:34:38;;;;;;;25.98;11.57;;;15.10;99.90;;;;;;4950454;28;20091;-65
2023/10/02 02:37:06;;;;;;;28.70;11.93;;;15.20;99.90;;;;;;4950026;28;20027;-69
2023/10/02 02:39:37;;;;;;;22.65;10.98;;;15.30;99.90;;;;;;4948955;28;20526;-64
2023/10/02 02:42:09;;;;;;;23.17;11.68;;;15.30;99.90;;;;;;4950288;28;20042;-67
2023/10/02 02:44:40;;;;;;;31.63;10.20;;;15.50;99.90;;;;;;4944792;28;20031;-65
2023/10/02 02:47:08;;;;;;;21.73;10.70;;;15.50;99.90;;;;;;4948751;28;20030;-64
2023/10/02 02:50:00;;;;;;;28.65;12.43;;;15.50;99.90;;;;;;4945957;28;20083;-64
2023/10/02 02:52:27;;;;;;;23.85;10.73;;;15.60;99.90;;;;;;4953574;28;20032;-67
2023/10/02 02:55:04;;;;;;;25.02;11.35;;;15.70;99.90;;;;;;4950363;28;20098;-64
2023/10/02 02:57:34;;;;;;;25.05;11.57;;;15.60;99.90;;;;;;4944619;28;20046;-66
2023/10/02 03:02:53;;;;;;;32.75;11.50;;;15.50;99.90;;;;;;4944656;28;20030;-66
2023/10/02 03:05:21;;;;;;;24.45;11.25;;;15.80;99.90;;;;;;4948255;28;20099;-68
2023/10/02 03:07:49;;;;;;;25.75;10.55;;;15.70;99.90;;;;;;4948599;28;20503;-67
2023/10/02 03:10:17;;;;;;;23.38;11.65;;;15.70;99.90;;;;;;4952550;28;20057;-68
2023/10/02 03:12:50;;;;;;;25.75;11.23;;;15.70;99.90;;;;;;4947219;28;20421;-63
2023/10/02 03:15:18;;;;;;;29.98;11.55;;;15.70;99.90;;;;;;4947400;28;20133;-69
2023/10/02 03:17:45;;;;;;;23.40;11.82;;;15.70;99.90;;;;;;4949966;28;20047;-69
2023/10/02 03:20:23;;;;;;;23.85;10.65;;;15.60;99.90;;;;;;4949539;28;20131;-71
2023/10/02 03:22:53;;;;;;;27.23;12.00;;;15.70;99.90;;;;;;4948742;28;20118;-70
2023/10/02 03:25:29;;;;;;;25.92;11.80;;;15.70;99.90;;;;;;4949336;28;20031;-66
2023/10/02 03:27:57;;;;;;;24.48;11.45;;;15.70;99.90;;;;;;4944462;28;20074;-63
2023/10/02 03:30:40;;;;;;;26.67;11.52;;;15.60;99.90;;;;;;4946835;28;20039;-67
2023/10/02 03:33:20;;;;;;;25.83;11.93;;;15.60;99.90;;;;;;4948793;28;20499;-64
2023/10/02 03:35:58;;;;;;;26.17;11.45;;;15.60;99.90;;;;;;4951733;28;20158;-68
2023/10/02 03:38:33;;;;;;;23.88;11.00;;;15.50;99.90;;;;;;4945957;28;20160;-68
2023/10/02 03:41:01;;;;;;;29.25;11.65;;;15.50;99.90;;;;;;4948870;28;20039;-71
2023/10/02 03:43:34;;;;;;;29.73;11.68;;;15.50;99.90;;;;;;4946964;28;20035;-70
2023/10/02 03:46:04;;;;;;;23.02;10.60;;;15.60;99.90;;;;;;4948268;28;20043;-68
2023/10/02 03:48:32;;;;;;;29.45;12.18;;;15.60;99.90;;;;;;4975957;28;20031;-71
2023/10/02 03:50:58;;;;;;;27.45;11.13;;;15.70;99.90;;;;;;4943623;28;20027;-71
2023/10/02 03:53:30;;;;;;;23.75;11.88;;;15.60;99.90;;;;;;4946697;28;20039;-64
2023/10/02 03:56:33;;;;;;;23.52;10.88;;;15.70;99.90;;;;;;4947221;28;20046;-63
2023/10/02 03:58:45;;;;;;;24.00;11.18;;;15.60;99.90;;;;;;4948303;28;20161;-63
2023/10/02 04:01:11;;;;;;;25.53;10.77;;;15.50;99.90;;;;;;4950108;28;20171;-62
2023/10/02 04:03:55;;;;;;;22.13;11.30;;;15.60;99.90;;;;;;4948732;28;20313;-65
2023/10/02 04:06:33;;;;;;;27.75;11.02;;;15.30;99.90;;;;;;4954742;28;20023;-63
2023/10/02 04:11:43;;;;;;;25.10;11.13;;;15.50;99.90;;;;;;4952053;28;20031;-71
2023/10/02 04:14:18;;;;;;;22.08;11.05;;;15.50;99.90;;;;;;4954553;28;20051;-70
2023/10/02 04:16:51;;;;;;;27.10;11.18;;;15.40;99.90;;;;;;4951214;28;20702;-69
2023/10/02 04:19:23;;;;;;;26.75;11.25;;;15.50;99.90;;;;;;4951173;28;20030;-69
2023/10/02 04:21:52;;;;;;;25.67;10.88;;;15.30;99.90;;;;;;4950781;28;20065;-66
2023/10/02 04:24:23;;;;;;;26.00;11.15;;;15.40;99.90;;;;;;4943130;28;20031;-70
2023/10/02 04:26:54;;;;;;;21.92;10.52;;;15.30;99.90;;;;;;4947261;28;20074;-70
2023/10/02 04:29:26;;;;;;;19.88;10.65;;;15.20;99.90;;;;;;4946536;28;20026;-69
2023/10/02 04:34:46;;;;;;;22.52;11.25;;;15.10;99.90;;;;;;4956181;28;20109;-63
2023/10/02 04:37:20;;;;;;;22.95;10.40;;;15.40;99.90;;;;;;4954687;28;20419;-63
2023/10/02 04:42:25;;;;;;;25.55;11.20;;;15.50;99.90;;;;;;4951067;28;20043;-67
2023/10/02 04:44:57;;;;;;;21.52;10.70;;;15.50;99.90;;;;;;4948360;28;20039;-68
2023/10/02 04:47:28;;;;;;;28.75;11.23;;;15.70;99.90;;;;;;4948568;28;20114;-67
2023/10/02 04:55:22;;;;;;;28.45;10.85;;;15.60;99.90;;;;;;4952410;28;20114;-69
2023/10/02 04:57:54;;;;;;;21.83;10.73;;;15.40;99.90;;;;;;4951230;28;20044;-69
2023/10/02 05:00:32;;;;;;;20.05;10.38;;;15.30;99.90;;;;;;4952312;28;20027;-69
2023/10/02 05:03:18;;;;;;;26.20;11.95;;;15.30;99.90;;;;;;4950489;28;20507;-70
2023/10/02 05:05:48;;;;;;;23.67;11.43;;;15.20;99.90;;;;;;4948504;28;20035;-63
2023/10/02 05:08:20;;;;;;;26.58;12.40;;;15.20;99.90;;;;;;4952283;28;20114;-66
2023/10/02 05:10:49;;;;;;;26.00;11.23;;;15.10;99.90;;;;;;4946014;28;20042;-67
2023/10/02 05:16:07;;;;;;;24.48;10.45;;;15.10;99.90;;;;;;4950068;28;20526;-70
2023/10/02 05:18:33;;;;;;;21.88;11.05;;;15.00;99.90;;;;;;4977376;28;20035;-70
2023/10/02 05:21:01;;;;;;;24.20;11.25;;;15.00;99.90;;;;;;4952165;28;20081;-67
2023/10/02 05:23:31;;;;;;;29.13;11.25;;;14.90;99.90;;;;;;4950093;28;20062;-68
2023/10/02 05:26:02;;;;;;;28.98;11.43;;;14.90;99.90;;;;;;4951560;28;20023;-70
2023/10/02 05:28:42;;;;;;;28.95;12.05;;;15.10;99.90;;;;;;4948013;28;20094;-66
2023/10/02 05:31:11;;;;;;;20.20;10.05;;;15.10;99.90;;;;;;4951439;28;20050;-71
2023/10/02 05:33:37;;;;;;;27.13;11.13;;;15.20;99.90;;;;;;4951389;28;20035;-68
2023/10/02 05:36:09;;;;;;;29.33;11.27;;;15.00;99.90;;;;;;4953030;28;20046;-69
2023/10/02 05:38:36;;;;;;;26.63;12.70;;;15.10;99.90;;;;;;4949460;28;20093;-66
2023/10/02 05:41:03;;;;;;;27.17;10.88;;;14.90;99.90;;;;;;4950325;28;20038;-65
2023/10/02 05:43:31;;;;;;;29.45;11.27;;;15.10;99.90;;;;;;4947415;28;20031;-65
2023/10/02 05:45:57;;;;;;;29.75;12.27;;;15.30;99.90;;;;;;4953624;28;20027;-67
2023/10/02 05:50:53;;;;;;;23.40;10.77;;;15.50;99.90;;;;;;4952277;28;20043;-67
2023/10/02 05:53:29;;;;;;;22.65;10.98;;;15.30;99.90;;;;;;4952673;28;20033;-68
2023/10/02 05:58:31;;;;;;;28.27;11.45;;;15.40;99.90;;;;;;4944760;28;20089;-71
2023/10/02 06:01:01;;;;;;;;;;;15.60;99.90;;;;;;4944539;28;20070;-69
2023/10/02 06:03:35;;;;;;;32.90;11.25;;;15.50;99.90;;;;;;4953436;28;20005;-66
2023/10/02 06:08:54;;;;;;;32.63;11.20;;;15.50;99.90;;;;;;4946240;28;20059;-68
2023/10/02 06:11:26;;;;;;;31.95;11.35;;;15.40;99.90;;;;;;4952816;28;20284;-64
2023/10/02 06:13:54;;;;;;;22.75;10.27;;;15.40;99.90;;;;;;4949173;28;20042;-65
2023/10/02 06:16:23;;;;;;;29.08;11.38;;;15.40;99.90;;;;;;4944905;28;20051;-66
2023/10/02 06:19:00;;;;;;;21.20;10.48;;;15.60;99.90;;;;;;4949765;28;20410;-65
2023/10/02 06:24:33;;;;;;;24.35;11.98;;;15.70;99.90;;;;;;4956891;28;20051;-69
2023/10/02 06:27:04;;;;;;;29.40;10.47;;;15.80;99.90;;;;;;4983531;28;20404;-72
2023/10/02 06:29:35;;;;;;;28.38;11.82;;;15.80;99.90;;;;;;4951982;28;20177;-70
2023/10/02 06:32:11;;;;;;;27.15;12.02;;;15.70;99.90;;;;;;4948699;28;20042;-70
2023/10/02 06:34:39;;;;;;;27.55;11.90;;;16.00;99.90;;;;;;4948064;28;20023;-70
2023/10/02 06:37:12;;;;;;;25.05;11.82;;;16.00;99.90;;;;;;4949336;28;20049;-70
2023/10/02 06:39:45;;;;;;;24.73;11.30;;;16.20;99.90;;;;;;4953667;28;20054;-65
2023/10/02 06:42:15;;;;;;;22.88;10.65;;;16.20;99.90;;;;;;4949233;28;20059;-67
2023/10/02 06:44:42;;;;;;;25.10;11.73;;;16.50;99.90;;;;;;4953622;28;20027;-66
2023/10/02 06:47:11;;;;;;;32.30;12.35;;;16.30;99.90;;;;;;4946893;28;20113;-67
2023/10/02 06:49:41;;;;;;;25.30;10.98;;;16.60;99.90;;;;;;4954133;28;20114;-66
2023/10/02 06:52:17;;;;;;;26.65;11.70;;;16.60;99.90;;;;;;4941998;28;20056;-68
2023/10/02 06:54:48;;;;;;;25.10;11.63;;;16.70;99.90;;;;;;4942556;28;20504;-70
2023/10/02 06:57:20;;;;;;;27.38;11.80;;;17.10;99.90;;;;;;4949891;28;20125;-67
2023/10/02 06:59:53;;;;;;;21.50;11.38;;;17.20;99.90;;;;;;4948501;28;20039;-66
2023/10/02 07:02:26;;;;;;;29.48;11.73;;;17.90;99.90;;;;;;4948255;28;20135;-66
2023/10/02 07:04:54;;;;;;;33.08;12.25;;;19.00;99.90;;;;;;4949570;28;20078;-65
2023/10/02 07:07:25;;;;;;;27.48;12.23;;;19.60;99.90;;;;;;4951899;28;20102;-66
2023/10/02 07:10:07;;;;;;;25.52;12.02;;;19.40;99.90;;;;;;4951600;28;20039;-71
2023/10/02 07:12:45;;;;;;;32.88;12.02;;;20.10;99.90;;;;;;4950522;28;20148;-67
2023/10/02 07:15:10;;;;;;;22.50;10.18;;;19.10;99.90;;;;;;4951486;28;20034;-68
2023/10/02 07:17:47;;;;;;;27.33;11.83;;;18.60;99.90;;;;;;4947539;28;20035;-66
2023/10/02 07:20:20;;;;;;;21.58;10.98;;;18.70;99.90;;;;;;4946611;28;20393;-67
2023/10/02 07:22:46;;;;;;;24.17;11.65;;;18.80;99.90;;;;;;4942222;28;20070;-65
2023/10/02 07:25:11;;;;;;;25.48;11.75;;;18.80;99.90;;;;;;4948478;28;20538;-71
2023/10/02 07:27:37;;;;;;;33.73;12.07;;;18.70;99.90;;;;;;4950367;28;20042;-65
2023/10/02 07:30:04;;;;;;;26.87;11.70;;;18.90;99.90;;;;;;4944358;28;20245;-65
2023/10/02 07:32:32;;;;;;;27.33;12.60;;;18.70;99.90;;;;;;4942418;28;20298;-65
2023/10/02 07:35:21;;;;;;;30.92;12.85;;;18.60;99.90;;;;;;4948661;28;20043;-66
2023/10/02 07:37:58;;;;;;;32.70;12.18;;;18.50;99.90;;;;;;4952621;28;20045;-67
2023/10/02 07:40:46;;;;;;;26.67;11.00;;;18.70;99.90;;;;;;4946074;28;20059;-65
2023/10/02 07:43:21;;;;;;;30.15;12.05;;;19.60;99.90;;;;;;4946086;28;20034;-67
2023/10/02 07:46:01;;;;;;;26.88;10.70;;;19.50;99.90;;;;;;4950469;28;20050;-67
2023/10/02 07:48:33;;;;;;;28.60;11.38;;;19.10;99.90;;;;;;4946623;28;20050;-66
2023/10/02 07:51:00;;;;;;;23.92;11.10;;;19.40;99.90;;;;;;4948087;28;20072;-66
2023/10/02 07:53:38;;;;;;;23.10;10.70;;;19.30;99.90;;;;;;4947355;28;20035;-66
2023/10/02 07:56:14;;;;;;;30.73;12.52;;;19.60;99.90;;;;;;4951203;28;20039;-65
2023/10/02 07:58:41;;;;;;;24.15;11.23;;;19.70;99.90;;;;;;4948891;28;20031;-65
2023/10/02 08:01:11;;;;;;;22.20;10.90;;;20.20;99.90;;;;;;4980004;28;20039;-66
2023/10/02 08:03:45;;;;;;;23.90;11.50;;;21.10;99.90;;;;;;4952034;28;20035;-66
2023/10/02 08:06:21;;;;;;;25.02;11.02;;;21.70;99.90;;;;;;4951844;28;20172;-66
2023/10/02 08:09:35;;;;;;;20.57;10.80;;;22.70;99.90;;;;;;4950670;28;20074;-67
2023/10/02 08:11:35;;;;;;;22.98;11.35;;;23.80;99.90;;;;;;4952739;28;20067;-66
2023/10/02 08:14:01;;;;;;;;;;;26.60;96.90;;;;;;4950005;28;20040;-65
2023/10/02 08:16:27;;;;;;;22.88;9.90;;;27.50;93.80;;;;;;4952127;28;20360;-68
2023/10/02 08:18:58;;;;;;;27.15;11.15;;;27.20;92.70;;;;;;4941941;28;20024;-67
2023/10/02 08:21:46;;;;;;;15.57;9.15;;;27.70;92.50;;;;;;4946276;28;20507;-66
2023/10/02 08:24:13;;;;;;;20.52;9.27;;;28.60;91.40;;;;;;4946124;28;20067;-70
2023/10/02 08:26:43;;;;;;;17.20;8.85;;;29.10;91.50;;;;;;4948672;28;20039;-66
2023/10/02 08:29:14;;;;;;;16.13;8.45;;;29.40;91.00;;;;;;4945351;28;20024;-68
2023/10/02 08:31:47;;;;;;;17.52;8.32;;;29.80;90.00;;;;;;4950735;28;20085;-68
2023/10/02 08:34:19;;;;;;;15.98;7.60;;;30.40;89.30;;;;;;4951376;28;20043;-66
2023/10/02 08:36:49;;;;;;;17.52;8.48;;;30.70;88.00;;;;;;4949406;28;20047;-67
2023/10/02 08:39:21;;;;;;;18.83;8.38;;;31.70;89.60;;;;;;4948969;28;20049;-67
2023/10/02 08:41:50;;;;;;;12.40;7.30;;;32.20;85.90;;;;;;4947746;28;20031;-66
2023/10/02 08:44:17;;;;;;;17.42;7.28;;;32.90;73.90;;;;;;4943867;28;20035;-68
2023/10/02 08:46:43;;;;;;;15.27;8.13;;;32.90;75.30;;;;;;4951756;28;20459;-66
2023/10/02 08:49:10;;;;;;;15.10;7.57;;;32.60;76.40;;;;;;4949774;28;20049;-66
2023/10/02 08:51:38;;;;;;;14.98;8.18;;;32.70;72.60;;;;;;4953424;28;20035;-68
2023/10/02 08:54:05;;;;;;;13.50;7.70;;;33.00;84.90;;;;;;4957077;28;20879;-66
2023/10/02 08:56:43;;;;;;;18.25;6.97;;;34.20;86.90;;;;;;4945816;28;20038;-68
2023/10/02 08:59:26;;;;;;;13.43;7.00;;;33.40;75.00;;;;;;4952726;28;20035;-71
2023/10/02 09:02:14;;;;;;;11.80;6.30;;;35.20;71.50;;;;;;4952698;28;20027;-72
2023/10/02 09:05:00;;;;;;;14.25;5.93;;;34.60;71.30;;;;;;4947109;28;20023;-67
2023/10/02 09:08:00;;;;;;;14.20;6.63;;;34.80;75.10;;;;;;4946043;28;20374;-69
2023/10/02 09:10:26;;;;;;;8.75;6.22;;;;;;;;;;4957950;28;20085;-67
2023/10/02 09:13:13;;;;;;;15.18;6.50;;;;;;;;;;4952862;28;20182;-71
2023/10/02 09:15:44;;;;;;;13.85;5.95;;;;;;;;;;4954949;28;20054;-69
2023/10/02 09:21:21;;;;;;;7.93;6.35;;;34.70;54.40;;;;;;4969970;28;20035;-70
2023/10/02 09:24:00;;;;;;;14.55;5.50;;;34.70;56.20;;;;;;4948151;28;20090;-71
2023/10/02 09:26:27;;;;;;;9.45;5.88;;;35.00;54.80;;;;;;4956544;28;20065;-71
2023/10/02 09:29:00;;;;;;;10.30;5.47;;;35.00;54.10;;;;;;4950194;28;20035;-67
2023/10/02 09:31:34;;;;;;;12.85;6.22;;;34.10;56.80;;;;;;4948676;28;20023;-66
2023/10/02 09:34:16;;;;;;;9.25;6.18;;;31.20;56.00;;;;;;4948335;28;20042;-66
2023/10/02 09:36:52;;;;;;;9.88;6.45;;;29.50;61.60;;;;;;4953513;28;20027;-65
2023/10/02 09:39:36;;;;;;;11.38;6.82;;;29.00;64.10;;;;;;4952012;28;20038;-66
2023/10/02 09:42:09;;;;;;;11.45;6.15;;;29.00;66.30;;;;;;4951097;28;20065;-65
2023/10/02 09:44:45;;;;;;;10.18;6.10;;;27.60;65.40;;;;;;4979990;28;20404;-66
2023/10/02 09:47:11;;;;;;;13.52;6.20;;;;;;;;;;4946797;28;20539;-68
2023/10/02 09:49:42;;;;;;;;;;;26.70;65.90;;;;;;4950981;28;20105;-67
2023/10/02 09:52:16;;;;;;;8.85;6.10;;;26.70;73.30;;;;;;4947650;28;19920;-66
2023/10/02 09:55:03;;;;;;;9.80;5.90;;;26.40;66.80;;;;;;4948702;28;20054;-68
2023/10/02 09:57:36;;;;;;;;;;;26.50;68.00;;;;;;4948066;28;20419;-64
2023/10/02 10:00:33;;;;;;;9.48;6.00;;;26.40;71.40;;;;;;4948176;28;19911;-68
2023/10/02 10:03:24;;;;;;;12.63;6.40;;;26.10;73.40;;;;;;4949713;28;20114;-67
2023/10/02 10:06:08;;;;;;;13.77;6.32;;;25.70;69.70;;;;;;4946620;28;20038;-67
2023/10/02 10:12:21;;;;;;;13.15;6.20;;;25.50;71.10;;;;;;4951464;28;20053;-65
2023/10/02 10:14:42;;;;;;;7.75;5.90;;;25.40;73.50;;;;;;4946340;28;20041;-65
2023/10/02 10:17:15;;;;;;;16.83;6.82;;;25.30;74.10;;;;;;4952753;28;20047;-65
2023/10/02 10:20:10;;;;;;;17.60;7.38;;;25.30;71.50;;;;;;4945547;28;20028;-65
2023/10/02 10:22:40;;;;;;;12.57;6.30;;;25.70;71.20;;;;;;4951530;28;20047;-65
2023/10/02 10:27:54;;;;;;;10.63;5.95;;;25.30;73.90;;;;;;4944585;28;20035;-64
2023/10/02 10:30:28;;;;;;;11.32;6.25;;;25.20;71.00;;;;;;4950778;28;20360;-67
2023/10/02 10:35:41;;;;;;;11.48;6.20;;;25.00;75.00;;;;;;4946012;28;20118;-66
2023/10/02 10:38:25;;;;;;;14.32;7.70;;;25.10;72.90;;;;;;4948997;28;20039;-65
2023/10/02 10:40:54;;;;;;;17.00;7.10;;;25.10;72.50;;;;;;4944086;28;20034;-65
2023/10/02 10:43:26;;;;;;;10.15;5.47;;;25.00;72.30;;;;;;4944882;28;20031;-64
2023/10/02 10:45:54;;;;;;;14.43;6.30;;;25.10;75.00;;;;;;4947600;28;20566;-69
2023/10/02 10:48:23;;;;;;;8.07;5.78;;;25.00;76.40;;;;;;4948777;28;20085;-66
2023/10/02 10:51:00;;;;;;;11.82;5.80;;;24.90;71.50;;;;;;4941825;28;20039;-68
2023/10/02 10:53:28;;;;;;;;;;;24.90;74.10;;;;;;4945632;28;20035;-69
2023/10/02 10:56:03;;;;;;;9.23;6.53;;;24.90;72.30;;;;;;4950963;28;19926;-69
2023/10/02 10:58:35;;;;;;;10.30;5.80;;;24.80;72.20;;;;;;4966521;28;20735;-70
2023/10/02 11:01:05;;;;;;;11.18;6.55;;;24.90;72.50;;;;;;4948427;28;20035;-66
2023/10/02 11:03:31;;;;;;;9.73;5.80;;;24.90;72.50;;;;;;4952456;28;20027;-68
2023/10/02 11:06:04;;;;;;;13.35;6.10;;;24.80;72.70;;;;;;4950966;28;20550;-68
2023/10/02 11:08:33;;;;;;;9.25;6.03;;;24.90;71.30;;;;;;4943128;28;20071;-68
2023/10/02 11:11:18;;;;;;;13.55;6.18;;;24.90;72.00;;;;;;4951075;28;20041;-67
2023/10/02 11:13:50;;;;;;;10.15;6.00;;;24.90;70.70;;;;;;4944178;28;20039;-65
2023/10/02 11:16:37;;;;;;;14.60;6.35;;;24.90;72.90;;;;;;4977754;28;20094;-66
2023/10/02 11:22:19;;;;;;;10.05;6.28;;;24.90;72.60;;;;;;4954104;28;20062;-68
2023/10/02 11:24:55;;;;;;;8.10;6.20;;;25.00;73.10;;;;;;4945186;28;20094;-67
2023/10/02 11:27:24;;;;;;;12.98;6.63;;;25.00;73.20;;;;;;4982704;28;20412;-70
2023/10/02 11:30:03;;;;;;;8.15;6.03;;;25.00;74.10;;;;;;4949876;28;20039;-65
2023/10/02 11:33:08;;;;;;;15.23;7.22;;;25.10;72.90;;;;;;4947629;28;20455;-69
2023/10/02 11:35:42;;;;;;;11.05;6.68;;;25.10;71.70;;;;;;4947968;28;20092;-69
2023/10/02 11:38:09;;;;;;;12.45;6.65;;;25.30;73.10;;;;;;4949303;28;20114;-69
2023/10/02 11:40:35;;;;;;;13.40;6.03;;;25.30;73.40;;;;;;4950372;28;20043;-69
2023/10/02 11:43:01;;;;;;;11.75;6.68;;;25.30;74.00;;;;;;4956928;28;20069;-70
2023/10/02 11:45:32;;;;;;;14.05;6.85;;;25.40;73.90;;;;;;4952369;28;20534;-66
2023/10/02 11:47:58;;;;;;;13.60;5.90;;;25.40;73.40;;;;;;4948506;28;20126;-65
2023/10/02 11:50:24;;;;;;;14.93;7.57;;;25.60;74.00;;;;;;4946174;28;20110;-64
2023/10/02 11:52:50;;;;;;;12.70;6.85;;;25.70;70.50;;;;;;4943661;28;20031;-64
2023/10/02 11:55:19;;;;;;;8.82;6.18;;;25.90;73.00;;;;;;4944246;28;20030;-64
2023/10/02 11:57:51;;;;;;;16.15;6.93;;;26.00;74.00;;;;;;4948619;28;20051;-64
2023/10/02 12:00:20;;;;;;;10.82;6.75;;;26.20;70.30;;;;;;4946806;28;20027;-65
2023/10/02 12:02:49;;;;;;;11.15;5.90;;;26.40;69.90;;;;;;4975210;28;20050;-64
2023/10/02 12:05:16;;;;;;;13.02;6.40;;;26.40;73.70;;;;;;4946384;28;20027;-64
2023/10/02 12:07:43;;;;;;;9.90;6.18;;;26.60;69.50;;;;;;4949641;28;20031;-65
2023/10/02 12:10:14;;;;;;;13.13;6.65;;;26.50;69.80;;;;;;4976566;28;20361;-64
2023/10/02 12:12:40;;;;;;;14.60;6.65;;;26.50;74.20;;;;;;4948961;28;20447;-66
2023/10/02 12:15:06;;;;;;;11.88;6.63;;;26.50;73.30;;;;;;4950293;28;20035;-66
2023/10/02 12:17:32;;;;;;;10.77;6.43;;;26.70;71.10;;;;;;4949290;28;20047;-65
2023/10/02 12:19:58;;;;;;;11.98;6.68;;;26.60;74.50;;;;;;4948897;28;20027;-67
2023/10/02 12:22:26;;;;;;;11.05;6.47;;;26.60;69.80;;;;;;4953141;28;20067;-65
2023/10/02 12:24:51;;;;;;;10.82;5.95;;;26.60;68.20;;;;;;4951352;28;20031;-66
2023/10/02 12:27:18;;;;;;;8.20;6.05;;;26.60;68.50;;;;;;4952043;28;20041;-67
2023/10/02 12:29:43;;;;;;;;;;;26.70;68.60;;;;;;4952649;28;20066;-68
2023/10/02 12:32:09;;;;;;;11.35;6.40;;;26.60;69.60;;;;;;4950351;28;19977;-69
2023/10/02 12:34:35;;;;;;;8.23;6.13;;;26.60;69.60;;;;;;4951764;28;20031;-70
2023/10/02 12:37:00;;;;;;;9.20;5.70;;;26.50;70.50;;;;;;4952190;28;20094;-67
2023/10/02 12:39:28;;;;;;;13.33;6.40;;;26.80;67.30;;;;;;4951547;28;20866;-67
2023/10/02 12:41:55;;;;;;;10.05;5.93;;;26.80;69.00;;;;;;4955513;28;20121;-69
2023/10/02 12:44:21;;;;;;;;;;;26.80;69.80;;;;;;4955602;28;20027;-70
2023/10/02 12:46:50;;;;;;;11.23;6.03;;;26.80;67.50;;;;;;4945012;28;19918;-70
2023/10/02 12:49:21;;;;;;;10.05;5.97;;;26.80;68.00;;;;;;4982427;28;20046;-66
2023/10/02 12:51:50;;;;;;;10.07;5.82;;;26.80;69.60;;;;;;4948475;28;20039;-66
2023/10/02 12:54:16;;;;;;;12.68;6.20;;;26.90;68.60;;;;;;4948399;28;20082;-66
2023/10/02 12:56:45;;;;;;;19.42;6.38;;;26.70;68.30;;;;;;4952036;28;20032;-67
2023/10/02 12:59:11;;;;;;;10.35;5.72;;;26.70;70.60;;;;;;4951357;28;20062;-67
2023/10/02 13:01:37;;;;;;;;;;;26.70;70.00;;;;;;4949118;28;20067;-67
2023/10/02 13:04:02;;;;;;;14.07;5.65;;;26.60;65.10;;;;;;4948148;28;19914;-66
2023/10/02 13:06:32;;;;;;;9.25;5.95;;;26.60;66.60;;;;;;4950027;28;20031;-65
2023/10/02 13:09:14;;;;;;;12.35;5.30;;;26.60;68.60;;;;;;4949215;28;20039;-65
2023/10/02 13:11:40;;;;;;;10.15;5.72;;;26.70;66.50;;;;;;4950415;28;20032;-68
2023/10/02 13:14:07;;;;;;;;;;;26.70;69.80;;;;;;4949394;28;20024;-65
2023/10/02 13:16:36;;;;;;;17.02;5.80;;;26.60;68.90;;;;;;4955115;28;19917;-65
2023/10/02 13:19:02;;;;;;;15.82;5.82;;;26.70;66.30;;;;;;4949915;28;20035;-66
2023/10/02 13:21:28;;;;;;;;;;;26.60;67.40;;;;;;4949985;28;20027;-65
2023/10/02 13:23:54;;;;;;;10.73;5.43;;;26.50;65.90;;;;;;4947502;28;21185;-65
2023/10/02 13:26:20;;;;;;;9.45;5.25;;;26.50;63.60;;;;;;4951369;28;20054;-65
2023/10/02 13:28:52;;;;;;;14.00;5.40;;;26.60;64.80;;;;;;4951579;28;20755;-66
2023/10/02 13:31:18;;;;;;;11.65;4.47;;;26.60;62.80;;;;;;4954411;28;20023;-66
2023/10/02 13:33:51;;;;;;;11.55;5.30;;;26.70;62.80;;;;;;4949323;28;20031;-66
2023/10/02 13:36:22;;;;;;;11.63;5.25;;;26.70;63.60;;;;;;4952411;28;20046;-65
2023/10/02 13:38:51;;;;;;;9.40;5.28;;;26.70;63.30;;;;;;4961811;28;20035;-66
2023/10/02 13:41:17;;;;;;;12.02;5.03;;;26.70;64.00;;;;;;4957723;28;20054;-68
2023/10/02 13:43:44;;;;;;;11.20;4.53;;;26.70;63.10;;;;;;4955306;28;20035;-66
2023/10/02 13:46:11;;;;;;;7.57;4.95;;;26.60;63.10;;;;;;4952457;28;20037;-65
2023/10/02 13:49:04;;;;;;;7.28;4.55;;;26.40;62.50;;;;;;4948095;28;20078;-65